createdAt,value
2023-03-04T00:02:30.923Z,1.00
2023-03-04T00:05:53.852Z,1.00
2023-03-04T00:09:15.445Z,1.00
2023-03-04T00:12:37.054Z,0.90
2023-03-04T00:15:58.683Z,0.90
2023-03-04T00:19:20.324Z,0.90
2023-03-04T00:22:43.228Z,0.80
2023-03-04T00:26:04.985Z,0.80
2023-03-04T00:29:26.926Z,0.70
2023-03-04T00:32:48.506Z,0.70
2023-03-04T00:36:10.272Z,0.70
2023-03-04T00:39:33.218Z,0.70
2023-03-04T00:42:54.789Z,0.70
2023-03-04T00:46:16.445Z,0.60
2023-03-04T00:49:38.108Z,0.60
2023-03-04T00:52:59.710Z,0.50
2023-03-04T00:56:22.683Z,0.40
2023-03-04T00:59:44.306Z,0.40
2023-03-04T01:03:05.945Z,0.40
2023-03-04T01:06:27.601Z,0.40
2023-03-04T01:09:49.220Z,0.40
2023-03-04T01:13:12.196Z,0.50
2023-03-04T01:16:33.972Z,0.50
2023-03-04T01:19:55.666Z,0.40
2023-03-04T01:23:17.263Z,0.40
2023-03-04T01:26:38.860Z,0.30
2023-03-04T01:30:01.949Z,0.30
2023-03-04T01:33:23.536Z,0.30
2023-03-04T01:36:45.130Z,0.20
2023-03-04T01:40:07.482Z,0.20
2023-03-04T01:43:30.090Z,0.10
2023-03-04T01:46:54.102Z,0.20
2023-03-04T01:50:19.084Z,0.10
2023-03-04T01:53:40.865Z,0.10
2023-03-04T01:57:02.695Z,0.10
2023-03-04T02:00:27.151Z,0.10
2023-03-04T02:03:50.096Z,0.00
2023-03-04T02:07:11.900Z,0.10
2023-03-04T02:10:33.676Z,0.10
2023-03-04T02:13:55.292Z,0.10
2023-03-04T02:17:16.880Z,0.10
2023-03-04T02:20:42.353Z,0.10
2023-03-04T02:24:09.989Z,0.00
2023-03-04T02:27:32.936Z,0.00
2023-03-04T02:30:54.548Z,0.00
2023-03-04T02:34:17.242Z,-0.10
2023-03-04T02:37:38.842Z,-0.10
2023-03-04T02:41:00.734Z,-0.10
2023-03-04T02:44:24.296Z,-0.10
2023-03-04T02:47:45.879Z,-0.20
2023-03-04T02:51:07.503Z,-0.20
2023-03-04T02:54:29.444Z,-0.20
2023-03-04T02:57:51.026Z,-0.20
2023-03-04T03:01:13.952Z,-0.30
2023-03-04T03:04:36.518Z,-0.30
2023-03-04T03:07:58.152Z,-0.30
2023-03-04T03:11:19.752Z,-0.40
2023-03-04T03:14:41.370Z,-0.40
2023-03-04T03:18:04.301Z,-0.40
2023-03-04T03:21:25.911Z,-0.40
2023-03-04T03:24:47.521Z,-0.40
2023-03-04T03:28:09.348Z,-0.40
2023-03-04T03:31:31.079Z,-0.40
2023-03-04T03:34:54.073Z,-0.50
2023-03-04T03:38:15.695Z,-0.50
2023-03-04T03:41:37.288Z,-0.50
2023-03-04T03:44:58.898Z,-0.60
2023-03-04T03:48:20.517Z,-0.60
2023-03-04T03:51:43.440Z,-0.60
2023-03-04T03:55:05.398Z,-0.60
2023-03-04T03:58:27.025Z,-0.60
2023-03-04T04:01:48.642Z,-0.70
2023-03-04T04:05:10.501Z,-0.70
2023-03-04T04:08:33.516Z,-0.70
2023-03-04T04:11:55.092Z,-0.80
2023-03-04T04:15:16.681Z,-0.80
2023-03-04T04:18:38.537Z,-0.80
2023-03-04T04:22:00.171Z,-0.80
2023-03-04T04:25:23.142Z,-0.80
2023-03-04T04:28:44.709Z,-0.80
2023-03-04T04:32:06.486Z,-0.80
2023-03-04T04:35:28.166Z,-0.80
2023-03-04T04:38:49.759Z,-0.90
2023-03-04T04:42:12.707Z,-0.90
2023-03-04T04:45:34.406Z,-0.90
2023-03-04T04:48:55.994Z,-1.00
2023-03-04T04:52:17.691Z,-1.00
2023-03-04T04:55:39.272Z,-1.10
2023-03-04T04:59:03.668Z,-1.10
2023-03-04T05:02:25.391Z,-1.10
2023-03-04T05:05:46.980Z,-1.20
2023-03-04T05:09:08.551Z,-1.20
2023-03-04T05:12:30.157Z,-1.20
2023-03-04T05:15:53.494Z,-1.20
2023-03-04T05:19:15.183Z,-1.30
2023-03-04T05:22:36.759Z,-1.30
2023-03-04T05:25:58.347Z,-1.30
2023-03-04T05:29:20.305Z,-1.30
2023-03-04T05:32:43.257Z,-1.30
2023-03-04T05:36:05.678Z,-1.40
2023-03-04T05:39:27.287Z,-1.40
2023-03-04T05:42:48.882Z,-1.40
2023-03-04T05:46:12.119Z,-1.40
2023-03-04T05:49:35.124Z,-1.50
2023-03-04T05:52:56.905Z,-1.50
2023-03-04T05:56:19.192Z,-1.50
2023-03-04T05:59:40.825Z,-1.50
2023-03-04T06:03:02.672Z,-1.50
2023-03-04T06:06:25.679Z,-1.50
2023-03-04T06:09:47.270Z,-1.50
2023-03-04T06:13:09.439Z,-1.50
2023-03-04T06:16:31.171Z,-1.50
2023-03-04T06:19:52.858Z,-1.50
2023-03-04T06:23:15.857Z,-1.40
2023-03-04T06:26:37.465Z,-1.40
2023-03-04T06:29:59.069Z,-1.30
2023-03-04T06:33:20.934Z,-1.30
2023-03-04T06:36:42.572Z,-1.30
2023-03-04T06:40:06.431Z,-1.20
2023-03-04T06:43:27.998Z,-1.00
2023-03-04T06:46:49.593Z,-1.00
2023-03-04T06:50:12.330Z,-0.90
2023-03-04T06:53:33.911Z,-0.70
2023-03-04T06:56:56.835Z,-0.60
2023-03-04T07:00:18.995Z,-0.40
2023-03-04T07:03:41.122Z,-0.30
2023-03-04T07:07:02.826Z,-0.20
2023-03-04T07:10:24.500Z,0.10
2023-03-04T07:13:47.639Z,0.30
2023-03-04T07:17:09.241Z,0.60
2023-03-04T07:20:31.843Z,0.90
2023-03-04T07:23:53.499Z,1.00
2023-03-04T07:27:15.138Z,1.20
2023-03-04T07:30:38.110Z,1.30
2023-03-04T07:34:00.538Z,1.50
2023-03-04T07:37:22.189Z,1.40
2023-03-04T07:40:43.879Z,1.30
2023-03-04T07:44:05.927Z,1.30
2023-03-04T07:47:28.897Z,1.40
2023-03-04T07:50:50.481Z,1.30
2023-03-04T07:54:12.110Z,1.10
2023-03-04T07:57:33.756Z,1.10
2023-03-04T08:00:55.375Z,1.10
2023-03-04T08:04:18.452Z,1.10
2023-03-04T08:07:40.071Z,1.20
2023-03-04T08:11:03.889Z,1.20
2023-03-04T08:14:25.464Z,1.20
2023-03-04T08:17:47.047Z,1.40
2023-03-04T08:21:10.856Z,1.40
2023-03-04T08:24:32.798Z,1.30
2023-03-04T08:27:54.422Z,1.30
2023-03-04T08:31:17.378Z,1.30
2023-03-04T08:34:39.243Z,1.30
2023-03-04T08:38:02.628Z,1.30
2023-03-04T08:41:24.332Z,1.30
2023-03-04T08:44:46.004Z,1.30
2023-03-04T08:48:07.604Z,1.30
2023-03-04T08:51:29.258Z,1.30
2023-03-04T08:54:52.207Z,1.30
2023-03-04T08:58:14.393Z,1.30
2023-03-04T09:01:36.072Z,1.30
2023-03-04T09:04:57.701Z,1.30
2023-03-04T09:08:19.379Z,1.40
2023-03-04T09:11:42.356Z,1.40
2023-03-04T09:15:11.134Z,1.40
2023-03-04T09:18:33.540Z,1.40
2023-03-04T09:21:55.242Z,1.40
2023-03-04T09:25:16.946Z,1.40
2023-03-04T09:28:39.883Z,1.50
2023-03-04T09:32:01.531Z,1.40
2023-03-04T09:35:23.306Z,1.50
2023-03-04T09:38:45.135Z,1.50
2023-03-04T09:42:08.295Z,1.50
2023-03-04T09:45:34.429Z,1.50
2023-03-04T09:48:56.409Z,1.40
2023-03-04T09:52:23.205Z,1.50
2023-03-04T09:55:45.951Z,1.50
2023-03-04T09:59:13.715Z,1.60
2023-03-04T10:02:43.805Z,1.70
2023-03-04T10:06:07.277Z,1.80
2023-03-04T10:09:32.553Z,1.80
2023-03-04T10:12:54.695Z,1.70
2023-03-04T10:16:18.555Z,1.80
2023-03-04T10:19:52.890Z,1.80
2023-03-04T10:23:16.058Z,1.90
2023-03-04T10:26:38.160Z,2.00
2023-03-04T10:30:00.497Z,2.00
2023-03-04T10:33:23.186Z,2.10
2023-03-04T10:36:51.111Z,2.30
2023-03-04T10:40:19.756Z,2.40
2023-03-04T10:43:41.427Z,2.50
2023-03-04T10:47:03.066Z,2.70
2023-03-04T10:50:25.500Z,3.10
2023-03-04T10:53:50.130Z,3.30
2023-03-04T10:57:15.201Z,3.30
2023-03-04T11:00:37.242Z,3.50
2023-03-04T11:03:58.846Z,3.80
2023-03-04T11:07:20.849Z,3.90
2023-03-04T11:10:43.858Z,4.00
2023-03-04T11:14:11.438Z,4.30
2023-03-04T11:17:41.859Z,4.50
2023-03-04T11:21:05.752Z,4.70
2023-03-04T11:24:29.679Z,5.00
2023-03-04T11:27:54.074Z,5.00
2023-03-04T11:31:18.509Z,5.10
2023-03-04T11:34:42.699Z,4.90
2023-03-04T11:38:06.004Z,4.80
2023-03-04T11:41:30.102Z,4.50
2023-03-04T11:44:53.149Z,4.40
2023-03-04T11:48:17.573Z,4.40
2023-03-04T11:51:43.952Z,4.50
2023-03-04T11:55:15.813Z,4.60
2023-03-04T11:58:45.030Z,4.80
2023-03-04T12:02:16.295Z,4.80
2023-03-04T12:05:43.626Z,4.90
2023-03-04T12:09:12.383Z,4.90
2023-03-04T12:12:49.945Z,4.80
2023-03-04T12:16:19.624Z,4.60
2023-03-04T12:19:48.846Z,4.60
2023-03-04T12:23:21.570Z,4.60
2023-03-04T12:26:46.102Z,4.60
2023-03-04T12:30:16.286Z,4.60
2023-03-04T12:33:42.173Z,4.70
2023-03-04T12:37:17.070Z,4.80
2023-03-04T12:40:43.215Z,4.70
2023-03-04T12:44:12.354Z,4.80
2023-03-04T12:47:37.557Z,4.90
2023-03-04T12:51:05.725Z,5.00
2023-03-04T12:54:32.064Z,5.20
2023-03-04T12:57:55.819Z,5.40
2023-03-04T13:01:22.718Z,5.70
2023-03-04T13:04:50.334Z,5.80
2023-03-04T13:08:16.826Z,6.10
2023-03-04T13:11:53.574Z,6.00
2023-03-04T13:15:26.887Z,5.80
2023-03-04T13:18:48.474Z,5.50
2023-03-04T13:22:28.525Z,5.50
2023-03-04T13:26:08.241Z,5.60
2023-03-04T13:29:34.842Z,5.70
2023-03-04T13:32:56.917Z,5.70
2023-03-04T13:36:32.083Z,5.60
2023-03-04T13:40:08.594Z,5.50
2023-03-04T13:43:37.251Z,5.40
2023-03-04T13:47:07.016Z,5.30
2023-03-04T13:50:37.907Z,5.20
2023-03-04T13:54:07.029Z,5.00
2023-03-04T13:57:28.646Z,4.90
2023-03-04T14:00:51.219Z,4.90
2023-03-04T14:04:17.598Z,4.70
2023-03-04T14:07:39.288Z,4.80
2023-03-04T14:11:01.086Z,4.70
2023-03-04T14:14:24.048Z,4.60
2023-03-04T14:17:46.850Z,4.40
2023-03-04T14:21:13.769Z,4.30
2023-03-04T14:24:35.411Z,4.30
2023-03-04T14:28:03.786Z,4.10
2023-03-04T14:31:26.371Z,4.00
2023-03-04T14:34:49.592Z,4.00
2023-03-04T14:38:16.728Z,4.10
2023-03-04T14:41:39.185Z,4.00
2023-03-04T14:45:01.576Z,4.10
2023-03-04T14:48:24.576Z,4.00
2023-03-04T14:51:47.180Z,3.80
2023-03-04T14:55:17.738Z,3.70
2023-03-04T14:58:51.215Z,3.50
2023-03-04T15:02:30.763Z,3.50
2023-03-04T15:05:52.405Z,3.40
2023-03-04T15:09:19.131Z,3.30
2023-03-04T15:12:50.488Z,3.40
2023-03-04T15:16:13.039Z,3.40
2023-03-04T15:19:34.661Z,3.30
2023-03-04T15:22:57.236Z,3.30
2023-03-04T15:26:18.872Z,3.10
2023-03-04T15:29:41.848Z,3.20
2023-03-04T15:33:03.508Z,3.10
2023-03-04T15:36:25.120Z,3.10
2023-03-04T15:39:46.817Z,3.00
2023-03-04T15:43:10.705Z,3.00
2023-03-04T15:46:33.776Z,3.00
2023-03-04T15:49:55.482Z,2.90
2023-03-04T15:53:19.556Z,2.90
2023-03-04T15:56:41.182Z,2.90
2023-03-04T16:00:02.915Z,2.90
2023-03-04T16:03:25.863Z,2.90
2023-03-04T16:06:48.515Z,2.90
2023-03-04T16:10:15.092Z,2.90
2023-03-04T16:13:36.662Z,2.90
2023-03-04T16:16:58.252Z,2.90
2023-03-04T16:20:22.306Z,2.80
2023-03-04T16:23:45.311Z,2.80
2023-03-04T16:27:09.888Z,2.80
2023-03-04T16:30:31.846Z,2.80
2023-03-04T16:33:53.447Z,2.80
2023-03-04T16:37:17.810Z,2.80
2023-03-04T16:40:39.509Z,2.80
2023-03-04T16:44:01.658Z,2.80
2023-03-04T16:47:23.322Z,2.80
2023-03-04T16:50:45.024Z,2.80
2023-03-04T16:54:12.301Z,2.80
2023-03-04T16:57:33.894Z,2.70
2023-03-04T17:00:55.491Z,2.70
2023-03-04T17:04:17.169Z,2.70
2023-03-04T17:07:38.779Z,2.70
2023-03-04T17:11:01.761Z,2.60
2023-03-04T17:14:23.372Z,2.60
2023-03-04T17:17:45.449Z,2.50
2023-03-04T17:21:07.904Z,2.50
2023-03-04T17:24:29.876Z,2.60
2023-03-04T17:27:52.834Z,2.50
2023-03-04T17:31:15.533Z,2.60
2023-03-04T17:34:37.172Z,2.50
2023-03-04T17:37:58.786Z,2.50
2023-03-04T17:41:20.690Z,2.60
2023-03-04T17:44:43.718Z,2.60
2023-03-04T17:48:05.814Z,2.60
2023-03-04T17:51:31.335Z,2.60
2023-03-04T17:54:53.075Z,2.50
2023-03-04T17:58:14.845Z,2.50
2023-03-04T18:01:37.795Z,2.50
2023-03-04T18:05:01.702Z,2.60
2023-03-04T18:08:24.164Z,2.60
2023-03-04T18:11:45.922Z,2.60
2023-03-04T18:15:07.882Z,2.60
2023-03-04T18:18:31.074Z,2.70
2023-03-04T18:21:52.665Z,2.70
2023-03-04T18:25:14.252Z,2.70
2023-03-04T18:28:35.855Z,2.70
2023-03-04T18:31:57.574Z,2.70
2023-03-04T18:35:20.865Z,2.80
2023-03-04T18:38:42.789Z,2.80
2023-03-04T18:42:04.427Z,2.80
2023-03-04T18:45:26.851Z,2.80
2023-03-04T18:48:50.298Z,2.80
2023-03-04T18:52:13.545Z,2.80
2023-03-04T18:55:35.217Z,2.80
2023-03-04T18:58:57.834Z,2.80
2023-03-04T19:02:22.301Z,2.80
2023-03-04T19:05:44.030Z,2.80
2023-03-04T19:09:07.086Z,2.80
2023-03-04T19:12:28.756Z,2.80
2023-03-04T19:15:50.866Z,2.80
2023-03-04T19:19:12.522Z,2.80
2023-03-04T19:22:34.458Z,2.80
2023-03-04T19:25:57.465Z,2.80
2023-03-04T19:29:19.088Z,2.80
2023-03-04T19:32:40.793Z,2.80
2023-03-04T19:36:02.978Z,2.80
2023-03-04T19:39:24.634Z,2.80
2023-03-04T19:42:47.577Z,2.80
2023-03-04T19:46:10.373Z,2.80
2023-03-04T19:49:32.083Z,2.70
2023-03-04T19:52:53.666Z,2.70
2023-03-04T19:56:15.280Z,2.70
2023-03-04T19:59:38.269Z,2.70
2023-03-04T20:02:59.953Z,2.70
2023-03-04T20:06:21.610Z,2.70
2023-03-04T20:09:43.227Z,2.60
2023-03-04T20:13:05.101Z,2.60
2023-03-04T20:16:28.233Z,2.60
2023-03-04T20:19:49.920Z,2.60
2023-03-04T20:23:11.587Z,2.60
2023-03-04T20:26:33.202Z,2.60
2023-03-04T20:29:54.874Z,2.70
2023-03-04T20:33:17.790Z,2.60
2023-03-04T20:36:39.962Z,2.60
2023-03-04T20:40:01.558Z,2.60
2023-03-04T20:43:23.142Z,2.70
2023-03-04T20:46:45.166Z,2.60
2023-03-04T20:50:08.903Z,2.60
2023-03-04T20:53:30.536Z,2.60
2023-03-04T20:56:52.141Z,2.60
2023-03-04T21:00:14.115Z,2.60
2023-03-04T21:03:35.717Z,2.60
2023-03-04T21:06:58.661Z,2.70
2023-03-04T21:10:20.295Z,2.60
2023-03-04T21:13:41.990Z,2.60
2023-03-04T21:17:04.294Z,2.70
2023-03-04T21:20:26.063Z,2.70
2023-03-04T21:23:49.408Z,2.70
2023-03-04T21:27:11.337Z,2.70
2023-03-04T21:30:32.975Z,2.70
2023-03-04T21:33:55.456Z,2.70
2023-03-04T21:37:17.185Z,2.70
2023-03-04T21:40:40.226Z,2.70
2023-03-04T21:44:01.832Z,2.80
2023-03-04T21:47:23.450Z,2.80
2023-03-04T21:50:45.098Z,2.80
2023-03-04T21:54:06.760Z,2.80
2023-03-04T21:57:29.677Z,2.80
2023-03-04T22:00:51.373Z,2.80
2023-03-04T22:04:12.978Z,2.80
2023-03-04T22:07:34.589Z,2.70
2023-03-04T22:10:56.283Z,2.70
2023-03-04T22:14:19.215Z,2.70
2023-03-04T22:17:41.781Z,2.70
2023-03-04T22:21:04.471Z,2.70
2023-03-04T22:24:26.090Z,2.60
2023-03-04T22:27:47.713Z,2.60
2023-03-04T22:31:17.964Z,2.70
2023-03-04T22:34:39.574Z,2.70
2023-03-04T22:38:01.147Z,2.70
2023-03-04T22:41:23.117Z,2.70
2023-03-04T22:44:44.717Z,2.70
2023-03-04T22:48:07.675Z,2.70
2023-03-04T22:51:29.261Z,2.60
2023-03-04T22:54:50.868Z,2.60
2023-03-04T22:58:12.456Z,2.60
2023-03-04T23:01:34.216Z,2.60
2023-03-04T23:04:57.265Z,2.60
2023-03-04T23:08:18.882Z,2.60
2023-03-04T23:11:40.497Z,2.70
2023-03-04T23:15:02.155Z,2.70
2023-03-04T23:18:23.807Z,2.80
2023-03-04T23:21:46.755Z,2.80
2023-03-04T23:25:08.584Z,2.70
2023-03-04T23:28:30.236Z,2.70
2023-03-04T23:31:51.820Z,2.60
2023-03-04T23:35:13.410Z,2.60
2023-03-04T23:38:36.379Z,2.50
2023-03-04T23:41:58.201Z,2.50
2023-03-04T23:45:19.795Z,2.50
2023-03-04T23:48:41.932Z,2.60
2023-03-04T23:52:03.607Z,2.50
2023-03-04T23:55:26.551Z,2.50
2023-03-04T23:58:48.184Z,2.50
